createdAt,value
2018-01-25T00:00:56.181Z,993.9
2018-01-25T00:01:56.923Z,993.9
2018-01-25T00:02:57.685Z,993.8
2018-01-25T00:03:58.417Z,993.8
2018-01-25T00:04:59.214Z,993.9
2018-01-25T00:05:59.938Z,993.8
2018-01-25T00:07:00.660Z,993.9
2018-01-25T00:08:01.397Z,994.0
2018-01-25T00:09:02.107Z,993.9
2018-01-25T00:10:02.841Z,993.9
2018-01-25T00:11:03.619Z,993.8
2018-01-25T00:12:04.347Z,993.8
2018-01-25T00:13:05.063Z,993.8
2018-01-25T00:14:05.797Z,993.8
2018-01-25T00:15:06.603Z,993.9
2018-01-25T00:16:07.327Z,993.9
2018-01-25T00:17:08.071Z,993.8
2018-01-25T00:18:08.876Z,993.9
2018-01-25T00:19:09.606Z,993.9
2018-01-25T00:20:10.337Z,993.9
2018-01-25T00:21:11.074Z,993.8
2018-01-25T00:22:11.803Z,993.8
2018-01-25T00:23:12.526Z,993.9
2018-01-25T00:24:13.262Z,993.9
2018-01-25T00:25:14.077Z,993.9
2018-01-25T00:26:14.838Z,993.8
2018-01-25T00:27:15.586Z,993.9
2018-01-25T00:28:16.350Z,993.8
2018-01-25T00:29:17.065Z,993.8
2018-01-25T00:30:17.797Z,993.8
2018-01-25T00:31:18.536Z,993.9
2018-01-25T00:32:19.305Z,993.8
2018-01-25T00:33:20.037Z,993.8
2018-01-25T00:34:20.753Z,993.9
2018-01-25T00:35:21.495Z,993.8
2018-01-25T00:36:22.265Z,993.8
2018-01-25T00:37:23.031Z,993.9
2018-01-25T00:38:23.767Z,993.9
2018-01-25T00:39:24.504Z,993.8
2018-01-25T00:40:25.232Z,993.9
2018-01-25T00:41:25.959Z,993.7
2018-01-25T00:42:26.753Z,993.8
2018-01-25T00:43:27.484Z,993.8
2018-01-25T00:44:28.203Z,993.9
2018-01-25T00:45:28.942Z,993.8
2018-01-25T00:46:29.712Z,993.8
2018-01-25T00:47:30.484Z,993.9
2018-01-25T00:48:31.216Z,993.9
2018-01-25T00:49:31.984Z,994.0
2018-01-25T00:50:32.796Z,993.9
2018-01-25T00:51:34.042Z,994.0
2018-01-25T00:52:34.747Z,993.9
2018-01-25T00:53:35.466Z,993.9
2018-01-25T00:54:36.192Z,993.8
2018-01-25T00:55:36.924Z,993.9
2018-01-25T00:56:37.700Z,993.9
2018-01-25T00:57:38.419Z,993.9
2018-01-25T00:58:39.150Z,993.9
2018-01-25T00:59:40.185Z,993.9
2018-01-25T01:00:40.972Z,993.9
2018-01-25T01:01:41.759Z,993.8
2018-01-25T01:02:42.497Z,993.8
2018-01-25T01:03:43.264Z,993.8
2018-01-25T01:04:44.048Z,993.8
2018-01-25T01:05:44.838Z,993.7
2018-01-25T01:06:45.561Z,993.7
2018-01-25T01:07:46.303Z,993.7
2018-01-25T01:08:47.084Z,993.7
2018-01-25T01:09:47.875Z,993.7
2018-01-25T01:10:48.606Z,993.7
2018-01-25T01:11:49.337Z,993.8
2018-01-25T01:12:50.063Z,993.7
2018-01-25T01:13:50.783Z,993.9
2018-01-25T01:14:51.562Z,993.8
2018-01-25T01:15:52.353Z,993.9
2018-01-25T01:16:53.115Z,993.8
2018-01-25T01:17:53.854Z,993.8
2018-01-25T01:18:54.591Z,993.7
2018-01-25T01:19:55.360Z,993.7
2018-01-25T01:20:56.156Z,993.8
2018-01-25T01:21:56.889Z,993.8
2018-01-25T01:22:57.707Z,993.8
2018-01-25T01:23:58.497Z,993.8
2018-01-25T01:24:59.264Z,993.8
2018-01-25T01:25:59.984Z,993.8
2018-01-25T01:27:00.787Z,993.9
2018-01-25T01:28:01.514Z,993.8
2018-01-25T01:29:02.264Z,993.8
2018-01-25T01:30:02.996Z,993.9
2018-01-25T01:31:03.730Z,993.9
2018-01-25T01:32:04.454Z,993.9
2018-01-25T01:33:05.173Z,993.9
2018-01-25T01:34:05.884Z,993.9
2018-01-25T01:35:06.606Z,994.0
2018-01-25T01:36:07.381Z,994.0
2018-01-25T01:37:08.163Z,994.1
2018-01-25T01:38:08.877Z,994.1
2018-01-25T01:39:09.638Z,994.2
2018-01-25T01:40:10.376Z,994.3
2018-01-25T01:41:11.094Z,994.4
2018-01-25T01:42:11.876Z,994.5
2018-01-25T01:43:12.603Z,994.6
2018-01-25T01:44:13.337Z,994.6
2018-01-25T01:45:14.076Z,994.7
2018-01-25T01:46:14.833Z,994.7
2018-01-25T01:47:15.577Z,994.8
2018-01-25T01:48:16.283Z,994.8
2018-01-25T01:49:17.018Z,994.7
2018-01-25T01:50:17.826Z,994.7
2018-01-25T01:51:18.562Z,994.8
2018-01-25T01:52:19.383Z,994.8
2018-01-25T01:53:20.103Z,994.8
2018-01-25T01:54:20.836Z,994.8
2018-01-25T01:55:21.574Z,994.8
2018-01-25T01:56:22.297Z,994.8
2018-01-25T01:57:23.028Z,994.8
2018-01-25T01:58:23.810Z,994.9
2018-01-25T01:59:24.591Z,994.9
2018-01-25T02:00:25.315Z,994.9
2018-01-25T02:01:26.031Z,994.8
2018-01-25T02:02:26.767Z,994.8
2018-01-25T02:03:27.632Z,994.8
2018-01-25T02:04:28.365Z,994.8
2018-01-25T02:05:29.088Z,994.8
2018-01-25T02:06:29.890Z,994.8
2018-01-25T02:07:30.615Z,994.9
2018-01-25T02:08:31.389Z,994.8
2018-01-25T02:09:32.169Z,994.9
2018-01-25T02:10:32.916Z,994.9
2018-01-25T02:11:33.623Z,994.9
2018-01-25T02:12:34.362Z,994.9
2018-01-25T02:13:35.086Z,994.9
2018-01-25T02:14:35.817Z,994.9
2018-01-25T02:15:36.557Z,994.9
2018-01-25T02:16:37.336Z,995.0
2018-01-25T02:17:38.129Z,995.0
2018-01-25T02:18:39.153Z,994.9
2018-01-25T02:19:39.892Z,995.0
2018-01-25T02:20:40.608Z,994.9
2018-01-25T02:21:41.332Z,994.9
2018-01-25T02:22:42.074Z,995.0
2018-01-25T02:23:42.857Z,995.0
2018-01-25T02:24:43.582Z,995.0
2018-01-25T02:25:44.360Z,995.0
2018-01-25T02:26:45.179Z,995.0
2018-01-25T02:27:46.007Z,995.0
2018-01-25T02:28:46.741Z,994.9
2018-01-25T02:29:47.516Z,994.9
2018-01-25T02:30:48.285Z,995.0
2018-01-25T02:31:49.023Z,995.0
2018-01-25T02:32:49.783Z,995.0
2018-01-25T02:33:50.578Z,995.0
2018-01-25T02:34:51.306Z,995.1
2018-01-25T02:35:52.035Z,995.1
2018-01-25T02:36:52.783Z,995.1
2018-01-25T02:37:53.511Z,995.1
2018-01-25T02:38:54.237Z,995.1
2018-01-25T02:39:54.968Z,995.1
2018-01-25T02:40:55.755Z,995.2
2018-01-25T02:41:56.473Z,995.1
2018-01-25T02:42:57.192Z,995.1
2018-01-25T02:43:57.979Z,995.2
2018-01-25T02:44:58.705Z,995.1
2018-01-25T02:45:59.438Z,995.1
2018-01-25T02:47:00.243Z,995.1
2018-01-25T02:48:00.978Z,995.1
2018-01-25T02:49:01.802Z,995.1
2018-01-25T02:50:02.571Z,995.1
2018-01-25T02:51:03.333Z,995.1
2018-01-25T02:52:04.024Z,995.2
2018-01-25T02:53:04.747Z,995.3
2018-01-25T02:54:05.737Z,995.2
2018-01-25T02:55:06.464Z,995.2
2018-01-25T02:56:07.187Z,995.2
2018-01-25T02:57:07.926Z,995.1
2018-01-25T02:58:08.728Z,995.1
2018-01-25T02:59:09.516Z,995.0
2018-01-25T03:00:10.233Z,995.1
2018-01-25T03:01:10.956Z,995.1
2018-01-25T03:02:11.707Z,995.2
2018-01-25T03:03:12.434Z,995.2
2018-01-25T03:04:13.158Z,995.2
2018-01-25T03:05:13.888Z,995.2
2018-01-25T03:06:14.629Z,995.2
2018-01-25T03:07:15.458Z,995.3
2018-01-25T03:08:16.197Z,995.2
2018-01-25T03:09:17.003Z,995.3
2018-01-25T03:10:17.734Z,995.2
2018-01-25T03:11:18.468Z,995.3
2018-01-25T03:12:19.248Z,995.3
2018-01-25T03:13:19.957Z,995.3
2018-01-25T03:14:20.687Z,995.3
2018-01-25T03:15:21.406Z,995.3
2018-01-25T03:16:22.138Z,995.4
2018-01-25T03:17:22.867Z,995.4
2018-01-25T03:18:23.600Z,995.4
2018-01-25T03:19:24.322Z,995.5
2018-01-25T03:20:25.043Z,995.4
2018-01-25T03:21:25.836Z,995.5
2018-01-25T03:22:26.539Z,995.5
2018-01-25T03:23:27.382Z,995.5
2018-01-25T03:24:28.109Z,995.5
2018-01-25T03:25:28.895Z,995.6
2018-01-25T03:26:29.658Z,995.6
2018-01-25T03:27:30.379Z,995.6
2018-01-25T03:28:31.114Z,995.7
2018-01-25T03:29:31.913Z,995.7
2018-01-25T03:30:32.678Z,995.7
2018-01-25T03:31:33.391Z,995.7
2018-01-25T03:32:34.132Z,995.8
2018-01-25T03:33:34.908Z,995.8
2018-01-25T03:34:35.630Z,995.8
2018-01-25T03:35:36.354Z,995.8
2018-01-25T03:36:37.192Z,995.8
2018-01-25T03:37:37.916Z,995.8
2018-01-25T03:38:38.640Z,995.8
2018-01-25T03:39:39.442Z,995.8
2018-01-25T03:40:40.152Z,995.8
2018-01-25T03:41:40.873Z,995.8
2018-01-25T03:42:41.601Z,995.9
2018-01-25T03:43:42.322Z,995.9
2018-01-25T03:44:43.033Z,995.9
2018-01-25T03:45:43.772Z,995.8
2018-01-25T03:46:44.509Z,995.8
2018-01-25T03:47:45.231Z,995.8
2018-01-25T03:48:45.963Z,995.9
2018-01-25T03:49:46.735Z,995.9
2018-01-25T03:50:47.522Z,995.9
2018-01-25T03:51:48.495Z,995.9
2018-01-25T03:52:49.240Z,995.9
2018-01-25T03:53:49.972Z,995.9
2018-01-25T03:54:50.701Z,995.9
2018-01-25T03:55:51.423Z,996.0
2018-01-25T03:56:52.196Z,996.0
2018-01-25T03:57:52.969Z,996.0
2018-01-25T03:58:53.693Z,996.0
2018-01-25T03:59:54.489Z,996.0
2018-01-25T04:00:55.224Z,996.0
2018-01-25T04:01:55.979Z,996.1
2018-01-25T04:02:56.717Z,996.1
2018-01-25T04:03:57.506Z,996.1
2018-01-25T04:04:58.226Z,996.1
2018-01-25T04:05:59.009Z,996.2
2018-01-25T04:06:59.725Z,996.2
2018-01-25T04:08:00.455Z,996.2
2018-01-25T04:09:01.213Z,996.1
2018-01-25T04:10:01.940Z,996.2
2018-01-25T04:11:02.672Z,996.2
2018-01-25T04:12:03.389Z,996.2
2018-01-25T04:13:04.117Z,996.2
2018-01-25T04:14:04.860Z,996.2
2018-01-25T04:15:05.584Z,996.2
2018-01-25T04:16:06.278Z,996.2
2018-01-25T04:17:06.989Z,996.2
2018-01-25T04:18:07.777Z,996.2
2018-01-25T04:19:08.507Z,996.2
2018-01-25T04:20:09.218Z,996.1
2018-01-25T04:21:09.933Z,996.2
2018-01-25T04:22:10.666Z,996.2
2018-01-25T04:23:11.385Z,996.3
2018-01-25T04:24:12.187Z,996.3
2018-01-25T04:25:12.923Z,996.3
2018-01-25T04:26:13.693Z,996.3
2018-01-25T04:27:14.463Z,996.3
2018-01-25T04:28:15.199Z,996.2
2018-01-25T04:29:15.968Z,996.2
2018-01-25T04:30:16.706Z,996.2
2018-01-25T04:31:17.477Z,996.2
2018-01-25T04:32:18.194Z,996.2
2018-01-25T04:33:18.926Z,996.3
2018-01-25T04:34:19.705Z,996.3
2018-01-25T04:35:20.424Z,996.3
2018-01-25T04:36:21.124Z,996.3
2018-01-25T04:37:21.848Z,996.3
2018-01-25T04:38:22.572Z,996.3
2018-01-25T04:39:23.352Z,996.3
2018-01-25T04:40:24.073Z,996.3
2018-01-25T04:41:24.831Z,996.3
2018-01-25T04:42:25.616Z,996.3
2018-01-25T04:43:26.336Z,996.3
2018-01-25T04:44:27.115Z,996.2
2018-01-25T04:45:27.836Z,996.3
2018-01-25T04:46:28.549Z,996.3
2018-01-25T04:47:29.314Z,996.3
2018-01-25T04:48:30.044Z,996.4
2018-01-25T04:49:30.827Z,996.4
2018-01-25T04:50:31.534Z,996.4
2018-01-25T04:51:32.333Z,996.4
2018-01-25T04:52:33.054Z,996.4
2018-01-25T04:53:33.850Z,996.4
2018-01-25T04:54:34.635Z,996.4
2018-01-25T04:55:35.347Z,996.4
2018-01-25T04:56:36.068Z,996.4
2018-01-25T04:57:36.863Z,996.4
2018-01-25T04:58:37.583Z,996.5
2018-01-25T04:59:38.307Z,996.4
2018-01-25T05:00:39.087Z,996.5
2018-01-25T05:01:39.809Z,996.5
2018-01-25T05:02:40.473Z,996.5
2018-01-25T05:03:41.194Z,996.5
2018-01-25T05:04:41.915Z,996.5
2018-01-25T05:05:42.657Z,996.5
2018-01-25T05:06:43.386Z,996.5
2018-01-25T05:07:44.107Z,996.5
2018-01-25T05:08:44.870Z,996.5
2018-01-25T05:09:45.666Z,996.6
2018-01-25T05:10:46.458Z,996.6
2018-01-25T05:11:47.565Z,996.6
2018-01-25T05:12:48.286Z,996.6
2018-01-25T05:13:49.014Z,996.6
2018-01-25T05:14:49.737Z,996.5
2018-01-25T05:15:50.466Z,996.5
2018-01-25T05:16:51.194Z,996.5
2018-01-25T05:17:51.953Z,996.4
2018-01-25T05:18:52.692Z,996.4
2018-01-25T05:19:53.397Z,996.4
2018-01-25T05:20:54.120Z,996.4
2018-01-25T05:21:54.876Z,996.4
2018-01-25T05:22:55.629Z,996.5
2018-01-25T05:23:56.344Z,996.5
2018-01-25T05:24:57.059Z,996.5
2018-01-25T05:25:57.884Z,996.4
2018-01-25T05:26:58.605Z,996.5
2018-01-25T05:27:59.383Z,996.4
2018-01-25T05:29:00.100Z,996.3
2018-01-25T05:30:00.906Z,996.3
2018-01-25T05:31:01.647Z,996.3
2018-01-25T05:32:02.364Z,996.2
2018-01-25T05:33:03.177Z,996.1
2018-01-25T05:34:03.903Z,996.2
2018-01-25T05:35:04.618Z,996.2
2018-01-25T05:36:05.414Z,996.2
2018-01-25T05:37:06.150Z,996.2
2018-01-25T05:38:06.965Z,996.3
2018-01-25T05:39:07.685Z,996.4
2018-01-25T05:40:08.476Z,996.4
2018-01-25T05:41:09.210Z,996.5
2018-01-25T05:42:09.925Z,996.5
2018-01-25T05:43:10.696Z,996.5
2018-01-25T05:44:11.494Z,996.5
2018-01-25T05:45:12.224Z,996.6
2018-01-25T05:46:12.945Z,996.5
2018-01-25T05:47:13.744Z,996.6
2018-01-25T05:48:14.714Z,996.5
2018-01-25T05:49:15.503Z,996.5
2018-01-25T05:50:16.222Z,996.5
2018-01-25T05:51:16.990Z,996.6
2018-01-25T05:52:17.754Z,996.6
2018-01-25T05:53:18.585Z,996.6
2018-01-25T05:54:19.325Z,996.7
2018-01-25T05:55:20.046Z,996.7
2018-01-25T05:56:20.772Z,996.7
2018-01-25T05:57:21.558Z,996.8
2018-01-25T05:58:22.407Z,996.8
2018-01-25T05:59:23.132Z,996.8
2018-01-25T06:00:23.853Z,996.7
2018-01-25T06:01:24.567Z,996.7
2018-01-25T06:02:25.327Z,996.8
2018-01-25T06:03:26.042Z,996.7
2018-01-25T06:04:26.846Z,996.8
2018-01-25T06:05:27.570Z,996.8
2018-01-25T06:06:28.282Z,996.8
2018-01-25T06:07:29.006Z,996.7
2018-01-25T06:08:30.121Z,996.8
2018-01-25T06:09:30.835Z,996.8
2018-01-25T06:10:31.622Z,996.9
2018-01-25T06:11:32.352Z,996.9
2018-01-25T06:12:33.135Z,996.9
2018-01-25T06:13:33.968Z,996.9
2018-01-25T06:14:34.690Z,996.8
2018-01-25T06:15:35.415Z,996.8
2018-01-25T06:16:36.204Z,996.8
2018-01-25T06:17:36.923Z,996.7
2018-01-25T06:18:37.671Z,996.7
2018-01-25T06:19:38.728Z,996.7
2018-01-25T06:20:39.514Z,996.8
2018-01-25T06:21:40.236Z,996.8
2018-01-25T06:22:40.960Z,997.0
2018-01-25T06:23:41.735Z,997.0
2018-01-25T06:24:42.472Z,996.9
2018-01-25T06:25:43.210Z,996.9
2018-01-25T06:26:43.989Z,996.9
2018-01-25T06:27:44.709Z,996.9
2018-01-25T06:28:45.546Z,996.9
2018-01-25T06:29:46.275Z,996.9
2018-01-25T06:30:47.005Z,996.9
2018-01-25T06:31:47.747Z,997.0
2018-01-25T06:32:48.516Z,997.0
2018-01-25T06:33:49.248Z,997.0
2018-01-25T06:34:49.975Z,997.0
2018-01-25T06:35:50.697Z,997.0
2018-01-25T06:36:51.411Z,996.9
2018-01-25T06:37:52.209Z,996.9
2018-01-25T06:38:53.064Z,996.9
2018-01-25T06:39:53.849Z,996.9
2018-01-25T06:40:54.589Z,996.9
2018-01-25T06:41:55.339Z,997.0
2018-01-25T06:42:56.019Z,997.0
2018-01-25T06:43:56.794Z,997.0
2018-01-25T06:44:57.529Z,997.0
2018-01-25T06:45:58.312Z,997.0
2018-01-25T06:46:59.037Z,997.0
2018-01-25T06:47:59.763Z,996.9
2018-01-25T06:49:00.499Z,997.0
2018-01-25T06:50:01.268Z,997.0
2018-01-25T06:51:01.996Z,997.0
2018-01-25T06:52:03.106Z,997.0
2018-01-25T06:53:03.850Z,997.1
2018-01-25T06:54:04.574Z,997.1
2018-01-25T06:55:05.324Z,997.1
2018-01-25T06:56:06.040Z,997.1
2018-01-25T06:57:07.008Z,997.0
2018-01-25T06:58:07.752Z,997.0
2018-01-25T06:59:08.513Z,997.1
2018-01-25T07:00:09.267Z,997.1
2018-01-25T07:01:10.009Z,997.1
2018-01-25T07:02:10.774Z,997.1
2018-01-25T07:03:11.517Z,997.0
2018-01-25T07:04:12.256Z,997.0
2018-01-25T07:05:13.011Z,997.0
2018-01-25T07:06:13.763Z,997.0
2018-01-25T07:07:14.494Z,997.0
2018-01-25T07:08:15.213Z,997.0
2018-01-25T07:09:16.021Z,997.0
2018-01-25T07:10:16.757Z,997.0
2018-01-25T07:11:17.551Z,997.0
2018-01-25T07:12:18.287Z,997.0
2018-01-25T07:13:19.011Z,997.0
2018-01-25T07:14:19.741Z,997.0
2018-01-25T07:15:20.434Z,997.1
2018-01-25T07:16:21.172Z,997.2
2018-01-25T07:17:21.954Z,997.1
2018-01-25T07:18:23.017Z,997.1
2018-01-25T07:19:23.747Z,997.1
2018-01-25T07:20:24.470Z,997.1
2018-01-25T07:21:25.216Z,997.1
2018-01-25T07:22:25.988Z,997.1
2018-01-25T07:23:26.768Z,997.1
2018-01-25T07:24:27.487Z,997.2
2018-01-25T07:25:28.218Z,997.2
2018-01-25T07:26:28.945Z,997.2
2018-01-25T07:27:29.669Z,997.1
2018-01-25T07:28:30.476Z,997.2
2018-01-25T07:29:31.212Z,997.2
2018-01-25T07:30:32.006Z,997.3
2018-01-25T07:31:32.739Z,997.2
2018-01-25T07:32:33.562Z,997.2
2018-01-25T07:33:34.368Z,997.2
2018-01-25T07:34:35.179Z,997.1
2018-01-25T07:35:35.918Z,997.1
2018-01-25T07:36:36.649Z,997.1
2018-01-25T07:37:37.377Z,997.1
2018-01-25T07:38:38.100Z,997.1
2018-01-25T07:39:38.824Z,997.1
2018-01-25T07:40:39.570Z,997.1
2018-01-25T07:41:40.324Z,997.2
2018-01-25T07:42:41.070Z,997.1
2018-01-25T07:43:41.835Z,997.2
2018-01-25T07:44:42.605Z,997.2
2018-01-25T07:45:43.366Z,997.2
2018-01-25T07:46:44.064Z,997.2
2018-01-25T07:47:44.888Z,997.2
2018-01-25T07:48:45.657Z,997.3
2018-01-25T07:49:46.346Z,997.3
2018-01-25T07:50:47.089Z,997.3
2018-01-25T07:51:47.898Z,997.3
2018-01-25T07:52:48.625Z,997.3
2018-01-25T07:53:49.351Z,997.3
2018-01-25T07:54:50.118Z,997.3
2018-01-25T07:55:51.285Z,997.3
2018-01-25T07:56:51.991Z,997.2
2018-01-25T07:57:52.866Z,997.3
2018-01-25T07:58:53.677Z,997.2
2018-01-25T07:59:54.390Z,997.2
2018-01-25T08:00:55.236Z,997.2
2018-01-25T08:01:55.958Z,997.3
2018-01-25T08:02:56.701Z,997.3
2018-01-25T08:03:57.508Z,997.3
2018-01-25T08:04:58.638Z,997.3
2018-01-25T08:05:59.531Z,997.3
2018-01-25T08:07:00.267Z,997.3
2018-01-25T08:08:01.100Z,997.3
2018-01-25T08:09:01.886Z,997.3
2018-01-25T08:10:02.633Z,997.3
2018-01-25T08:11:03.406Z,997.3
2018-01-25T08:12:04.138Z,997.3
2018-01-25T08:13:04.936Z,997.3
2018-01-25T08:14:05.726Z,997.3
2018-01-25T08:15:06.480Z,997.4
2018-01-25T08:16:07.265Z,997.3
2018-01-25T08:17:08.008Z,997.3
2018-01-25T08:18:08.721Z,997.3
2018-01-25T08:19:09.458Z,997.3
2018-01-25T08:20:10.266Z,997.3
2018-01-25T08:21:10.995Z,997.3
2018-01-25T08:22:11.835Z,997.2
2018-01-25T08:23:12.574Z,997.3
2018-01-25T08:24:13.311Z,997.3
2018-01-25T08:25:14.114Z,997.2
2018-01-25T08:26:14.848Z,997.2
2018-01-25T08:27:15.590Z,997.2
2018-01-25T08:28:16.437Z,997.2
2018-01-25T08:29:17.281Z,997.2
2018-01-25T08:30:18.028Z,997.2
2018-01-25T08:31:18.705Z,997.2
2018-01-25T08:32:19.515Z,997.3
2018-01-25T08:33:20.247Z,997.3
2018-01-25T08:34:21.056Z,997.3
2018-01-25T08:35:21.826Z,997.3
2018-01-25T08:36:22.554Z,997.3
2018-01-25T08:37:23.291Z,997.3
2018-01-25T08:38:24.103Z,997.3
2018-01-25T08:39:24.843Z,997.3
2018-01-25T08:40:25.922Z,997.3
2018-01-25T08:41:33.155Z,997.3
2018-01-25T08:42:27.448Z,997.2
2018-01-25T08:43:28.255Z,997.2
2018-01-25T08:44:29.028Z,997.2
2018-01-25T08:45:29.897Z,997.3
2018-01-25T08:46:30.695Z,997.2
2018-01-25T08:47:31.475Z,997.2
2018-01-25T08:48:32.210Z,997.1
2018-01-25T08:49:32.936Z,997.2
2018-01-25T08:50:33.984Z,997.2
2018-01-25T08:51:34.710Z,997.2
2018-01-25T08:52:35.435Z,997.2
2018-01-25T08:53:36.171Z,997.2
2018-01-25T08:54:36.902Z,997.1
2018-01-25T08:55:37.634Z,997.1
2018-01-25T08:56:38.375Z,997.1
2018-01-25T08:57:39.230Z,997.2
2018-01-25T08:58:39.995Z,997.1
2018-01-25T08:59:40.705Z,997.2
2018-01-25T09:00:41.459Z,997.2
2018-01-25T09:01:42.183Z,997.2
2018-01-25T09:02:42.916Z,997.2
2018-01-25T09:03:43.724Z,997.2
2018-01-25T09:04:44.454Z,997.2
2018-01-25T09:05:45.187Z,997.3
2018-01-25T09:06:45.980Z,997.2
2018-01-25T09:07:46.790Z,997.2
2018-01-25T09:08:47.507Z,997.3
2018-01-25T09:09:48.306Z,997.2
2018-01-25T09:10:49.027Z,997.3
2018-01-25T09:11:49.755Z,997.2
2018-01-25T09:12:50.485Z,997.3
2018-01-25T09:13:51.286Z,997.3
2018-01-25T09:14:52.025Z,997.3
2018-01-25T09:15:52.760Z,997.3
2018-01-25T09:16:53.494Z,997.3
2018-01-25T09:17:54.325Z,997.3
2018-01-25T09:18:55.054Z,997.3
2018-01-25T09:19:55.786Z,997.3
2018-01-25T09:20:56.518Z,997.4
2018-01-25T09:21:57.308Z,997.4
2018-01-25T09:22:58.088Z,997.4
2018-01-25T09:23:58.896Z,997.3
2018-01-25T09:24:59.624Z,997.3
2018-01-25T09:26:00.345Z,997.3
2018-01-25T09:27:01.081Z,997.3
2018-01-25T09:28:01.886Z,997.3
2018-01-25T09:29:02.625Z,997.3
2018-01-25T09:30:03.367Z,997.3
2018-01-25T09:31:04.100Z,997.3
2018-01-25T09:32:04.899Z,997.3
2018-01-25T09:33:05.734Z,997.3
2018-01-25T09:34:06.482Z,997.3
2018-01-25T09:35:07.215Z,997.3
2018-01-25T09:36:07.946Z,997.4
2018-01-25T09:37:08.678Z,997.4
2018-01-25T09:38:09.406Z,997.4
2018-01-25T09:39:10.445Z,997.4
2018-01-25T09:40:11.165Z,997.4
2018-01-25T09:41:11.897Z,997.4
2018-01-25T09:42:12.626Z,997.3
2018-01-25T09:43:13.366Z,997.3
2018-01-25T09:44:14.205Z,997.4
2018-01-25T09:45:14.995Z,997.4
2018-01-25T09:46:15.765Z,997.4
2018-01-25T09:47:16.565Z,997.5
2018-01-25T09:48:17.306Z,997.4
2018-01-25T09:49:18.038Z,997.5
2018-01-25T09:50:18.843Z,997.5
2018-01-25T09:51:19.937Z,997.5
2018-01-25T09:52:20.668Z,997.5
2018-01-25T09:53:21.449Z,997.5
2018-01-25T09:54:22.300Z,997.5
2018-01-25T09:55:22.975Z,997.4
2018-01-25T09:56:23.705Z,997.5
2018-01-25T09:57:24.425Z,997.5
2018-01-25T09:58:25.180Z,997.5
2018-01-25T09:59:25.964Z,997.5
2018-01-25T10:00:27.476Z,997.5
2018-01-25T10:01:28.372Z,997.5
2018-01-25T10:02:30.212Z,997.4
2018-01-25T10:03:32.238Z,997.4
2018-01-25T10:04:33.288Z,997.4
2018-01-25T10:05:34.115Z,997.4
2018-01-25T10:06:35.077Z,997.4
2018-01-25T10:07:36.037Z,997.4
2018-01-25T10:08:36.903Z,997.4
2018-01-25T10:09:37.616Z,997.4
2018-01-25T10:10:38.400Z,997.3
2018-01-25T10:11:39.136Z,997.3
2018-01-25T10:12:39.860Z,997.4
2018-01-25T10:13:40.595Z,997.3
2018-01-25T10:14:41.326Z,997.3
2018-01-25T10:15:42.059Z,997.3
2018-01-25T10:16:42.832Z,997.3
2018-01-25T10:17:43.628Z,997.3
2018-01-25T10:18:44.355Z,997.3
2018-01-25T10:19:45.103Z,997.3
2018-01-25T10:20:45.892Z,997.4
2018-01-25T10:21:46.761Z,997.4
2018-01-25T10:22:47.487Z,997.4
2018-01-25T10:23:48.217Z,997.5
2018-01-25T10:24:48.957Z,997.6
2018-01-25T10:25:49.688Z,997.5
2018-01-25T10:28:04.766Z,997.6
2018-01-25T10:29:05.500Z,997.4
2018-01-25T10:30:06.230Z,997.4
2018-01-25T10:31:07.026Z,997.5
2018-01-25T10:32:08.067Z,997.4
2018-01-25T10:33:08.795Z,997.4
2018-01-25T10:34:09.517Z,997.4
2018-01-25T10:35:10.347Z,997.4
2018-01-25T10:36:11.057Z,997.4
2018-01-25T10:37:11.785Z,997.4
2018-01-25T10:38:12.517Z,997.4
2018-01-25T10:39:13.283Z,997.4
2018-01-25T10:40:13.974Z,997.5
2018-01-25T10:41:14.707Z,997.5
2018-01-25T10:42:15.443Z,997.5
2018-01-25T10:43:16.294Z,997.5
2018-01-25T10:44:17.017Z,997.5
2018-01-25T10:45:17.754Z,997.5
2018-01-25T10:46:18.542Z,997.5
2018-01-25T10:47:19.538Z,997.6
2018-01-25T10:48:21.606Z,997.5
2018-01-25T10:49:22.759Z,997.5
2018-01-25T10:50:23.746Z,997.5
2018-01-25T10:51:24.771Z,997.6
2018-01-25T10:52:25.558Z,997.5
2018-01-25T10:53:26.241Z,997.5
2018-01-25T10:54:27.024Z,997.5
2018-01-25T10:55:28.066Z,997.5
2018-01-25T10:56:28.793Z,997.4
2018-01-25T10:57:29.624Z,997.4
2018-01-25T10:58:30.403Z,997.4
2018-01-25T10:59:31.142Z,997.3
2018-01-25T11:00:32.175Z,997.4
2018-01-25T11:01:32.906Z,997.3
2018-01-25T11:02:33.637Z,997.3
2018-01-25T11:03:34.359Z,997.3
2018-01-25T11:04:35.161Z,997.3
2018-01-25T11:05:36.040Z,997.3
2018-01-25T11:06:36.768Z,997.3
2018-01-25T11:07:37.527Z,997.3
2018-01-25T11:08:38.262Z,997.3
2018-01-25T11:09:38.986Z,997.3
2018-01-25T11:10:39.771Z,997.3
2018-01-25T11:11:40.512Z,997.4
2018-01-25T11:12:41.284Z,997.4
2018-01-25T11:13:42.040Z,997.4
2018-01-25T11:14:42.829Z,997.3
2018-01-25T11:15:43.570Z,997.4
2018-01-25T11:16:44.365Z,997.4
2018-01-25T11:17:45.070Z,997.4
2018-01-25T11:18:46.839Z,997.3
2018-01-25T11:19:47.795Z,997.3
2018-01-25T11:20:48.536Z,997.2
2018-01-25T11:21:49.276Z,997.2
2018-01-25T11:22:50.014Z,997.2
2018-01-25T11:23:50.776Z,997.1
2018-01-25T11:24:51.506Z,997.2
2018-01-25T11:25:52.536Z,997.2
2018-01-25T11:26:53.275Z,997.2
2018-01-25T11:27:54.025Z,997.3
2018-01-25T11:28:54.770Z,997.3
2018-01-25T11:29:55.524Z,997.2
2018-01-25T11:30:57.661Z,997.2
2018-01-25T11:31:58.324Z,997.2
2018-01-25T11:32:59.056Z,997.2
2018-01-25T11:33:59.791Z,997.2
2018-01-25T11:35:00.522Z,997.2
2018-01-25T11:36:01.309Z,997.3
2018-01-25T11:37:02.034Z,997.3
2018-01-25T11:38:02.814Z,997.3
2018-01-25T11:39:03.597Z,997.2
2018-01-25T11:40:04.326Z,997.2
2018-01-25T11:41:05.110Z,997.2
2018-01-25T11:42:05.846Z,997.2
2018-01-25T11:43:06.574Z,997.2
2018-01-25T11:44:07.313Z,997.2
2018-01-25T11:45:08.050Z,997.2
2018-01-25T11:46:08.845Z,997.2
2018-01-25T11:47:09.596Z,997.2
2018-01-25T11:48:10.322Z,997.1
2018-01-25T11:49:11.068Z,997.1
2018-01-25T11:50:11.785Z,997.1
2018-01-25T11:51:12.510Z,997.1
2018-01-25T11:52:13.316Z,997.1
2018-01-25T11:53:14.115Z,997.1
2018-01-25T11:54:14.848Z,997.1
2018-01-25T11:55:15.587Z,997.0
2018-01-25T11:56:16.307Z,997.0
2018-01-25T11:57:17.087Z,997.0
2018-01-25T11:58:17.815Z,997.0
2018-01-25T11:59:18.534Z,997.0
2018-01-25T12:00:19.264Z,997.0
2018-01-25T12:01:20.010Z,997.0
2018-01-25T12:02:20.784Z,997.0
2018-01-25T12:03:21.546Z,997.0
2018-01-25T12:04:22.284Z,997.0
2018-01-25T12:05:23.025Z,997.1
2018-01-25T12:06:23.794Z,997.1
2018-01-25T12:07:24.561Z,997.0
2018-01-25T12:08:26.435Z,997.1
2018-01-25T12:09:27.688Z,997.1
2018-01-25T12:10:28.281Z,997.1
2018-01-25T12:11:29.000Z,997.0
2018-01-25T12:12:29.806Z,997.1
2018-01-25T12:13:30.534Z,997.1
2018-01-25T12:14:31.270Z,997.0
2018-01-25T12:15:32.007Z,997.0
2018-01-25T12:16:32.804Z,997.1
2018-01-25T12:17:33.560Z,997.1
2018-01-25T12:18:34.596Z,997.1
2018-01-25T12:19:35.385Z,997.0
2018-01-25T12:20:36.196Z,997.0
2018-01-25T12:21:36.926Z,997.0
2018-01-25T12:22:37.665Z,997.1
2018-01-25T12:23:38.394Z,997.1
2018-01-25T12:24:39.129Z,997.0
2018-01-25T12:25:39.856Z,996.9
2018-01-25T12:26:40.636Z,997.0
2018-01-25T12:27:41.440Z,997.1
2018-01-25T12:28:42.252Z,997.1
2018-01-25T12:29:42.986Z,997.1
2018-01-25T12:30:43.715Z,997.1
2018-01-25T12:31:44.510Z,997.0
2018-01-25T12:32:45.260Z,997.1
2018-01-25T12:33:46.050Z,997.1
2018-01-25T12:34:46.786Z,997.0
2018-01-25T12:35:47.518Z,997.0
2018-01-25T12:36:48.246Z,997.0
2018-01-25T12:37:48.997Z,997.0
2018-01-25T12:38:49.796Z,997.0
2018-01-25T12:39:50.536Z,996.9
2018-01-25T12:40:51.272Z,997.0
2018-01-25T12:41:52.052Z,996.9
2018-01-25T12:42:52.794Z,996.9
2018-01-25T12:43:53.534Z,996.9
2018-01-25T12:44:54.271Z,996.8
2018-01-25T12:45:55.066Z,996.9
2018-01-25T12:46:55.795Z,996.8
2018-01-25T12:47:56.534Z,996.8
2018-01-25T12:48:57.275Z,996.8
2018-01-25T12:49:58.015Z,996.8
2018-01-25T12:50:58.769Z,996.8
2018-01-25T12:51:59.510Z,996.8
2018-01-25T12:53:00.306Z,996.8
2018-01-25T12:54:01.035Z,996.8
2018-01-25T12:55:01.764Z,996.8
2018-01-25T12:56:02.495Z,996.7
2018-01-25T12:57:03.230Z,996.7
2018-01-25T12:58:04.005Z,996.7
2018-01-25T12:59:04.794Z,996.7
2018-01-25T13:00:05.474Z,996.7
2018-01-25T13:01:06.226Z,996.7
2018-01-25T13:02:06.957Z,996.7
2018-01-25T13:03:07.685Z,996.7
2018-01-25T13:04:08.470Z,996.6